createdAt,value
2023-05-13T00:00:06.135Z,65.87
2023-05-13T00:02:54.352Z,66.01
2023-05-13T00:05:22.610Z,65.89
2023-05-13T00:07:51.385Z,66.07
2023-05-13T00:10:20.964Z,66.22
2023-05-13T00:12:49.475Z,66.14
2023-05-13T00:15:17.615Z,66.16
2023-05-13T00:17:46.457Z,66.44
2023-05-13T00:20:14.627Z,66.42
2023-05-13T00:22:43.012Z,66.52
2023-05-13T00:25:11.770Z,66.43
2023-05-13T00:27:40.715Z,66.69
2023-05-13T00:30:10.791Z,66.96
2023-05-13T00:32:39.115Z,67.20
2023-05-13T00:35:10.506Z,67.14
2023-05-13T00:37:38.986Z,67.19
2023-05-13T00:40:17.718Z,67.05
2023-05-13T00:42:45.957Z,67.12
2023-05-13T00:45:14.384Z,67.33
2023-05-13T00:47:44.482Z,67.32
2023-05-13T00:50:14.395Z,67.44
2023-05-13T00:52:43.342Z,67.52
2023-05-13T00:55:12.167Z,67.61
2023-05-13T00:57:40.604Z,67.97
2023-05-13T01:00:10.642Z,67.70
2023-05-13T01:02:55.097Z,68.08
2023-05-13T01:05:45.820Z,68.62
2023-05-13T01:08:20.539Z,68.39
2023-05-13T01:10:53.444Z,68.44
2023-05-13T01:13:26.535Z,68.81
2023-05-13T01:16:01.692Z,68.90
2023-05-13T01:18:41.252Z,69.07
2023-05-13T01:21:10.104Z,69.11
2023-05-13T01:23:38.515Z,69.13
2023-05-13T01:26:07.072Z,69.27
2023-05-13T01:28:36.490Z,69.30
2023-05-13T01:31:06.722Z,69.28
2023-05-13T01:33:34.886Z,69.29
2023-05-13T01:36:03.724Z,69.20
2023-05-13T01:38:34.312Z,69.28
2023-05-13T01:41:02.819Z,69.29
2023-05-13T01:43:33.990Z,69.06
2023-05-13T01:46:02.367Z,69.47
2023-05-13T01:48:30.820Z,69.56
2023-05-13T01:50:59.417Z,69.74
2023-05-13T01:53:28.085Z,69.57
2023-05-13T01:55:56.826Z,69.96
2023-05-13T01:58:25.078Z,69.97
2023-05-13T02:00:53.382Z,69.97
2023-05-13T02:03:21.822Z,70.27
2023-05-13T02:05:51.084Z,70.31
2023-05-13T02:08:19.472Z,70.27
2023-05-13T02:10:58.667Z,70.40
2023-05-13T02:13:27.606Z,70.31
2023-05-13T02:15:56.806Z,70.30
2023-05-13T02:18:25.262Z,70.58
2023-05-13T02:20:53.385Z,70.52
2023-05-13T02:23:21.698Z,70.67
2023-05-13T02:25:50.200Z,70.72
2023-05-13T02:28:19.224Z,70.60
2023-05-13T02:30:48.102Z,70.70
2023-05-13T02:33:16.478Z,70.78
2023-05-13T02:35:44.871Z,70.94
2023-05-13T02:38:13.594Z,70.91
2023-05-13T02:40:42.409Z,70.87
2023-05-13T02:43:10.936Z,70.89
2023-05-13T02:45:48.274Z,71.11
2023-05-13T02:48:17.539Z,71.14
2023-05-13T02:50:46.028Z,71.33
2023-05-13T02:53:14.410Z,71.34
2023-05-13T02:55:46.910Z,71.07
2023-05-13T02:58:15.563Z,71.06
2023-05-13T03:00:43.857Z,70.87
2023-05-13T03:03:12.301Z,71.21
2023-05-13T03:05:40.865Z,71.06
2023-05-13T03:08:09.216Z,71.31
2023-05-13T03:10:37.510Z,71.23
2023-05-13T03:13:05.779Z,71.22
2023-05-13T03:15:33.958Z,71.36
2023-05-13T03:18:02.274Z,71.30
2023-05-13T03:20:31.309Z,71.36
2023-05-13T03:22:59.941Z,71.27
2023-05-13T03:25:28.480Z,71.27
2023-05-13T03:27:59.252Z,71.22
2023-05-13T03:30:30.711Z,71.12
2023-05-13T03:33:11.944Z,71.21
2023-05-13T03:35:40.379Z,71.20
2023-05-13T03:38:10.162Z,71.38
2023-05-13T03:40:41.872Z,71.48
2023-05-13T03:43:10.473Z,71.45
2023-05-13T03:45:40.052Z,71.32
2023-05-13T03:48:11.101Z,71.28
2023-05-13T03:50:41.128Z,71.47
2023-05-13T03:53:11.436Z,71.44
2023-05-13T03:55:40.149Z,71.50
2023-05-13T03:58:16.108Z,71.61
2023-05-13T04:00:46.985Z,71.67
2023-05-13T04:03:17.374Z,71.57
2023-05-13T04:05:46.992Z,71.49
2023-05-13T04:08:16.008Z,71.41
2023-05-13T04:10:45.000Z,71.31
2023-05-13T04:13:13.272Z,71.29
2023-05-13T04:15:41.413Z,71.34
2023-05-13T04:18:10.111Z,70.90
2023-05-13T04:20:39.878Z,70.42
2023-05-13T04:23:08.356Z,69.53
2023-05-13T04:25:39.313Z,68.78
2023-05-13T04:28:07.974Z,68.73
2023-05-13T04:30:41.266Z,68.69
2023-05-13T04:33:09.947Z,68.61
2023-05-13T04:35:39.167Z,68.94
2023-05-13T04:38:09.626Z,68.83
2023-05-13T04:40:37.902Z,68.08
2023-05-13T04:43:10.218Z,67.59
2023-05-13T04:45:47.718Z,66.79
2023-05-13T04:48:16.653Z,66.37
2023-05-13T04:50:48.737Z,65.74
2023-05-13T04:53:18.114Z,65.70
2023-05-13T04:55:48.946Z,65.66
2023-05-13T04:58:17.457Z,65.63
2023-05-13T05:00:48.632Z,65.46
2023-05-13T05:03:16.883Z,65.25
2023-05-13T05:05:45.153Z,65.23
2023-05-13T05:08:15.201Z,65.00
2023-05-13T05:10:43.863Z,64.08
2023-05-13T05:13:13.289Z,62.89
2023-05-13T05:15:42.381Z,62.58
2023-05-13T05:18:11.511Z,62.78
2023-05-13T05:20:41.206Z,62.63
2023-05-13T05:23:17.478Z,62.73
2023-05-13T05:25:46.073Z,62.87
2023-05-13T05:28:14.837Z,62.84
2023-05-13T05:30:45.049Z,63.07
2023-05-13T05:33:22.178Z,63.03
2023-05-13T05:35:51.458Z,63.04
2023-05-13T05:38:24.163Z,63.15
2023-05-13T05:40:53.235Z,63.05
2023-05-13T05:43:21.874Z,63.07
2023-05-13T05:45:53.502Z,62.89
2023-05-13T05:48:22.683Z,62.83
2023-05-13T05:50:50.974Z,62.73
2023-05-13T05:53:27.192Z,62.08
2023-05-13T05:55:57.057Z,61.58
2023-05-13T05:58:27.158Z,61.44
2023-05-13T06:00:57.181Z,61.18
2023-05-13T06:03:25.716Z,60.37
2023-05-13T06:05:54.890Z,60.20
2023-05-13T06:08:30.041Z,60.73
2023-05-13T06:10:59.272Z,60.55
2023-05-13T06:13:28.094Z,59.93
2023-05-13T06:15:56.993Z,59.15
2023-05-13T06:18:26.328Z,59.19
2023-05-13T06:20:55.636Z,58.15
2023-05-13T06:23:24.325Z,56.69
2023-05-13T06:25:53.668Z,56.46
2023-05-13T06:28:22.135Z,55.94
2023-05-13T06:30:53.923Z,55.47
2023-05-13T06:33:22.610Z,54.97
2023-05-13T06:35:51.156Z,54.80
2023-05-13T06:38:22.407Z,54.16
2023-05-13T06:40:55.200Z,54.03
2023-05-13T06:43:29.409Z,53.27
2023-05-13T06:46:01.182Z,53.83
2023-05-13T06:48:30.174Z,53.97
2023-05-13T06:50:58.768Z,53.44
2023-05-13T06:53:27.040Z,53.05
2023-05-13T06:55:55.218Z,51.80
2023-05-13T06:58:23.633Z,51.55
2023-05-13T07:00:52.076Z,51.14
2023-05-13T07:03:20.786Z,50.99
2023-05-13T07:05:49.581Z,51.18
2023-05-13T07:08:19.136Z,50.95
2023-05-13T07:10:47.364Z,50.16
2023-05-13T07:13:15.547Z,50.56
2023-05-13T07:15:43.942Z,50.40
2023-05-13T07:18:12.037Z,50.36
2023-05-13T07:20:40.183Z,50.71
2023-05-13T07:23:08.469Z,51.19
2023-05-13T07:25:36.787Z,51.41
2023-05-13T07:28:05.952Z,51.54
2023-05-13T07:30:34.242Z,51.61
2023-05-13T07:33:02.593Z,51.43
2023-05-13T07:35:31.078Z,51.30
2023-05-13T07:37:59.352Z,50.95
2023-05-13T07:40:27.691Z,50.70
2023-05-13T07:42:55.970Z,50.20
2023-05-13T07:45:24.453Z,50.56
2023-05-13T07:47:53.168Z,50.18
2023-05-13T07:50:21.428Z,49.31
2023-05-13T07:52:51.883Z,49.10
2023-05-13T07:55:21.764Z,49.39
2023-05-13T07:57:50.466Z,48.16
2023-05-13T08:00:19.047Z,47.49
2023-05-13T08:02:47.779Z,45.90
2023-05-13T08:05:17.055Z,43.87
2023-05-13T08:07:45.176Z,44.49
2023-05-13T08:10:13.317Z,44.38
2023-05-13T08:12:41.622Z,43.98
2023-05-13T08:15:12.116Z,44.06
2023-05-13T08:17:40.170Z,43.02
2023-05-13T08:20:08.954Z,42.70
2023-05-13T08:22:37.431Z,42.19
2023-05-13T08:25:06.073Z,40.90
2023-05-13T08:27:35.158Z,41.28
2023-05-13T08:30:05.205Z,41.07
2023-05-13T08:32:33.698Z,41.01
2023-05-13T08:35:01.758Z,40.54
2023-05-13T08:37:30.239Z,40.62
2023-05-13T08:40:01.574Z,39.90
2023-05-13T08:42:33.385Z,38.87
2023-05-13T08:45:07.744Z,39.15
2023-05-13T08:47:58.497Z,39.52
2023-05-13T08:50:30.676Z,39.62
2023-05-13T08:53:00.566Z,39.28
2023-05-13T08:55:29.184Z,39.24
2023-05-13T08:57:57.656Z,40.16
2023-05-13T09:00:26.028Z,40.30
2023-05-13T09:02:54.331Z,40.09
2023-05-13T09:05:23.360Z,40.58
2023-05-13T09:07:52.637Z,40.86
2023-05-13T09:10:21.480Z,40.32
2023-05-13T09:12:53.696Z,39.30
2023-05-13T09:15:24.235Z,38.73
2023-05-13T09:18:03.432Z,36.70
2023-05-13T09:20:32.995Z,35.28
2023-05-13T09:23:10.909Z,33.01
2023-05-13T09:25:40.439Z,31.65
2023-05-13T09:28:09.051Z,32.14
2023-05-13T09:30:40.675Z,33.50
2023-05-13T09:33:17.541Z,34.26
2023-05-13T09:35:53.066Z,33.67
2023-05-13T09:38:26.950Z,34.03
2023-05-13T09:40:57.130Z,34.25
2023-05-13T09:43:32.415Z,34.53
2023-05-13T09:46:02.446Z,34.94
2023-05-13T09:48:34.338Z,33.83
2023-05-13T09:51:02.574Z,33.73
2023-05-13T09:53:31.719Z,32.07
2023-05-13T09:56:01.865Z,32.18
2023-05-13T09:58:31.404Z,32.88
2023-05-13T10:01:00.773Z,33.52
2023-05-13T10:03:29.753Z,33.61
2023-05-13T10:06:02.224Z,34.18
2023-05-13T10:08:32.022Z,33.81
2023-05-13T10:11:00.471Z,32.82
2023-05-13T10:13:31.934Z,33.55
2023-05-13T10:16:00.715Z,34.22
2023-05-13T10:18:29.458Z,34.14
2023-05-13T10:20:58.446Z,33.42
2023-05-13T10:23:28.442Z,34.29
2023-05-13T10:26:01.796Z,33.75
2023-05-13T10:28:31.010Z,32.52
2023-05-13T10:30:59.452Z,32.46
2023-05-13T10:33:31.249Z,32.62
2023-05-13T10:36:30.756Z,33.05
2023-05-13T10:39:17.920Z,33.51
2023-05-13T10:42:11.150Z,33.94
2023-05-13T10:44:39.422Z,34.23
2023-05-13T10:47:11.357Z,34.69
2023-05-13T10:49:40.579Z,34.61
2023-05-13T10:52:14.302Z,34.84
2023-05-13T10:54:42.501Z,34.53
2023-05-13T10:57:10.685Z,34.10
2023-05-13T11:00:16.136Z,32.47
2023-05-13T11:02:45.076Z,33.26
2023-05-13T11:05:21.273Z,31.74
2023-05-13T11:07:57.576Z,30.03
2023-05-13T11:10:32.648Z,30.76
2023-05-13T11:13:16.450Z,28.56
2023-05-13T11:15:55.649Z,28.13
2023-05-13T11:18:31.421Z,28.81
2023-05-13T11:21:05.574Z,29.30
2023-05-13T11:23:50.275Z,27.29
2023-05-13T11:26:21.444Z,26.39
2023-05-13T11:29:01.694Z,25.79
2023-05-13T11:31:53.365Z,25.18
2023-05-13T11:34:21.780Z,25.36
2023-05-13T11:36:52.082Z,25.03
2023-05-13T11:39:22.476Z,24.04
2023-05-13T11:41:51.784Z,24.13
2023-05-13T11:44:22.288Z,23.96
2023-05-13T11:46:51.481Z,22.12
2023-05-13T11:49:49.543Z,22.25
2023-05-13T11:52:19.724Z,21.39
2023-05-13T11:54:54.255Z,21.67
2023-05-13T11:57:27.659Z,22.06
2023-05-13T12:00:09.176Z,22.61
2023-05-13T12:02:40.517Z,22.93
2023-05-13T12:05:11.807Z,21.87
2023-05-13T12:07:40.143Z,22.09
2023-05-13T12:10:08.718Z,22.14
2023-05-13T12:12:43.304Z,23.00
2023-05-13T12:15:17.369Z,22.93
2023-05-13T12:17:47.068Z,22.35
2023-05-13T12:20:23.461Z,22.63
2023-05-13T12:22:54.532Z,22.68
2023-05-13T12:25:36.206Z,22.61
2023-05-13T12:28:20.046Z,22.57
2023-05-13T12:31:08.074Z,23.62
2023-05-13T12:33:44.014Z,24.34
2023-05-13T12:36:26.200Z,24.53
2023-05-13T12:39:05.465Z,25.01
2023-05-13T12:41:41.458Z,24.91
2023-05-13T12:44:16.326Z,25.52
2023-05-13T12:46:53.001Z,25.52
2023-05-13T12:49:21.204Z,25.27
2023-05-13T12:51:50.173Z,25.25
2023-05-13T12:54:18.975Z,25.36
2023-05-13T12:56:48.719Z,25.39
2023-05-13T12:59:19.262Z,25.28
2023-05-13T13:01:49.993Z,25.27
2023-05-13T13:04:19.295Z,25.27
2023-05-13T13:06:48.012Z,25.69
2023-05-13T13:09:16.162Z,26.00
2023-05-13T13:11:44.454Z,25.59
2023-05-13T13:14:12.836Z,25.53
2023-05-13T13:16:41.091Z,25.68
2023-05-13T13:19:09.932Z,25.95
2023-05-13T13:21:38.186Z,26.49
2023-05-13T13:24:06.901Z,26.06
2023-05-13T13:26:35.266Z,26.36
2023-05-13T13:29:03.771Z,26.32
2023-05-13T13:31:32.067Z,26.13
2023-05-13T13:34:04.485Z,26.30
2023-05-13T13:36:33.221Z,27.06
2023-05-13T13:39:01.695Z,27.04
2023-05-13T13:41:29.884Z,26.79
2023-05-13T13:43:58.252Z,26.21
2023-05-13T13:46:26.476Z,26.25
2023-05-13T13:48:54.818Z,26.85
2023-05-13T13:51:23.102Z,27.26
2023-05-13T13:53:51.276Z,27.66
2023-05-13T13:56:20.410Z,28.03
2023-05-13T13:58:48.660Z,27.97
2023-05-13T14:01:17.040Z,27.57
2023-05-13T14:03:45.378Z,27.73
2023-05-13T14:06:14.121Z,28.49
2023-05-13T14:08:42.848Z,28.48
2023-05-13T14:11:11.004Z,28.88
2023-05-13T14:13:39.174Z,29.20
2023-05-13T14:16:07.920Z,29.02
2023-05-13T14:18:36.168Z,29.07
2023-05-13T14:21:04.836Z,29.43
2023-05-13T14:23:33.124Z,29.25
2023-05-13T14:26:01.412Z,28.52
2023-05-13T14:28:29.998Z,28.10
2023-05-13T14:30:58.377Z,28.19
2023-05-13T14:33:26.614Z,28.22
2023-05-13T14:35:55.665Z,28.20
2023-05-13T14:38:23.832Z,27.47
2023-05-13T14:40:52.020Z,27.62
2023-05-13T14:43:20.504Z,27.58
2023-05-13T14:45:48.599Z,27.38
2023-05-13T14:48:17.213Z,26.97
2023-05-13T14:50:46.721Z,26.81
2023-05-13T14:53:14.960Z,26.67
2023-05-13T14:55:43.555Z,26.70
2023-05-13T14:58:12.956Z,26.66
2023-05-13T15:00:41.872Z,25.39
2023-05-13T15:03:10.363Z,25.55
2023-05-13T15:05:41.783Z,25.84
2023-05-13T15:08:12.328Z,26.23
2023-05-13T15:10:40.913Z,26.32
2023-05-13T15:13:09.453Z,26.00
2023-05-13T15:15:37.791Z,26.38
2023-05-13T15:18:06.698Z,26.41
2023-05-13T15:20:34.875Z,26.15
2023-05-13T15:23:03.054Z,26.75
2023-05-13T15:25:31.241Z,26.91
2023-05-13T15:27:59.507Z,27.24
2023-05-13T15:30:28.919Z,27.40
2023-05-13T15:32:57.428Z,27.41
2023-05-13T15:35:26.055Z,27.31
2023-05-13T15:37:54.845Z,26.97
2023-05-13T15:40:24.214Z,27.35
2023-05-13T15:42:52.352Z,27.67
2023-05-13T15:45:20.651Z,27.73
2023-05-13T15:47:49.145Z,27.76
2023-05-13T15:50:19.040Z,27.83
2023-05-13T15:52:47.546Z,27.56
2023-05-13T15:55:16.242Z,27.82
2023-05-13T15:57:44.765Z,28.21
2023-05-13T16:00:14.012Z,28.22
2023-05-13T16:02:44.059Z,28.31
2023-05-13T16:05:15.443Z,27.99
2023-05-13T16:07:44.508Z,28.03
2023-05-13T16:10:12.906Z,28.32
2023-05-13T16:12:41.188Z,28.40
2023-05-13T16:15:10.894Z,28.54
2023-05-13T16:17:39.196Z,28.71
2023-05-13T16:20:10.165Z,29.53
2023-05-13T16:22:39.722Z,29.84
2023-05-13T16:25:10.259Z,29.81
2023-05-13T16:27:40.080Z,30.18
2023-05-13T16:30:10.637Z,30.67
2023-05-13T16:32:39.312Z,31.11
2023-05-13T16:35:08.420Z,31.50
2023-05-13T16:37:36.622Z,31.64
2023-05-13T16:40:06.043Z,31.34
2023-05-13T16:42:34.272Z,31.30
2023-05-13T16:45:02.696Z,31.29
2023-05-13T16:47:30.893Z,31.40
2023-05-13T16:49:59.733Z,31.35
2023-05-13T16:52:28.221Z,31.73
2023-05-13T16:54:58.462Z,33.16
2023-05-13T16:57:27.864Z,34.38
2023-05-13T16:59:56.389Z,35.06
2023-05-13T17:02:25.283Z,35.35
2023-05-13T17:04:54.251Z,34.93
2023-05-13T17:07:23.024Z,34.42
2023-05-13T17:09:51.321Z,34.40
2023-05-13T17:12:19.598Z,33.97
2023-05-13T17:14:47.780Z,34.44
2023-05-13T17:17:16.418Z,35.49
2023-05-13T17:19:44.857Z,35.87
2023-05-13T17:22:13.036Z,35.78
2023-05-13T17:24:41.834Z,35.27
2023-05-13T17:27:11.319Z,36.60
2023-05-13T17:29:40.644Z,37.70
2023-05-13T17:32:08.816Z,38.46
2023-05-13T17:34:37.104Z,38.50
2023-05-13T17:37:06.212Z,38.76
2023-05-13T17:39:34.491Z,39.64
2023-05-13T17:42:02.868Z,40.47
2023-05-13T17:44:31.125Z,41.04
2023-05-13T17:46:59.442Z,41.42
2023-05-13T17:49:28.034Z,41.49
2023-05-13T17:51:56.157Z,41.30
2023-05-13T17:54:24.284Z,41.48
2023-05-13T17:56:52.460Z,41.46
2023-05-13T17:59:20.863Z,41.95
2023-05-13T18:01:49.238Z,43.04
2023-05-13T18:04:17.626Z,43.20
2023-05-13T18:06:45.955Z,43.19
2023-05-13T18:09:14.102Z,43.73
2023-05-13T18:11:42.352Z,43.78
2023-05-13T18:14:10.439Z,43.95
2023-05-13T18:16:38.788Z,44.19
2023-05-13T18:19:07.296Z,44.37
2023-05-13T18:21:35.597Z,44.57
2023-05-13T18:24:04.125Z,44.66
2023-05-13T18:26:32.563Z,45.02
2023-05-13T18:29:01.284Z,45.02
2023-05-13T18:31:29.549Z,45.11
2023-05-13T18:33:58.089Z,45.55
2023-05-13T18:36:29.064Z,45.95
2023-05-13T18:38:57.180Z,46.54
2023-05-13T18:41:25.996Z,46.94
2023-05-13T18:43:54.236Z,47.45
2023-05-13T18:46:23.268Z,47.81
2023-05-13T18:48:51.805Z,47.98
2023-05-13T18:51:21.067Z,48.32
2023-05-13T18:53:49.190Z,48.73
2023-05-13T18:56:17.680Z,48.89
2023-05-13T18:58:46.924Z,49.00
2023-05-13T19:01:18.376Z,48.93
2023-05-13T19:03:47.148Z,48.84
2023-05-13T19:06:15.923Z,49.45
2023-05-13T19:08:44.102Z,49.57
2023-05-13T19:11:12.294Z,49.44
2023-05-13T19:13:47.381Z,49.41
2023-05-13T19:16:16.590Z,49.51
2023-05-13T19:18:44.776Z,50.03
2023-05-13T19:21:13.085Z,50.72
2023-05-13T19:23:41.673Z,50.62
2023-05-13T19:26:11.088Z,50.76
2023-05-13T19:28:39.899Z,50.90
2023-05-13T19:31:08.428Z,51.16
2023-05-13T19:33:39.724Z,51.25
2023-05-13T19:36:09.375Z,51.28
2023-05-13T19:38:37.722Z,51.55
2023-05-13T19:41:06.118Z,51.38
2023-05-13T19:43:34.585Z,51.69
2023-05-13T19:46:03.032Z,51.79
2023-05-13T19:48:31.592Z,51.88
2023-05-13T19:50:59.751Z,52.22
2023-05-13T19:53:28.129Z,52.31
2023-05-13T19:55:56.814Z,52.45
2023-05-13T19:58:24.998Z,52.55
2023-05-13T20:00:54.467Z,52.50
2023-05-13T20:03:23.147Z,52.63
2023-05-13T20:05:54.056Z,52.88
2023-05-13T20:08:23.136Z,53.30
2023-05-13T20:10:54.290Z,53.65
2023-05-13T20:13:22.676Z,53.93
2023-05-13T20:15:51.907Z,54.13
2023-05-13T20:18:21.185Z,54.62
2023-05-13T20:20:49.360Z,54.70
2023-05-13T20:23:17.539Z,54.83
2023-05-13T20:25:47.215Z,54.95
2023-05-13T20:28:15.997Z,55.25
2023-05-13T20:30:44.336Z,55.44
2023-05-13T20:33:12.924Z,55.51
2023-05-13T20:35:41.305Z,55.95
2023-05-13T20:38:09.890Z,55.85
2023-05-13T20:40:38.188Z,56.18
2023-05-13T20:43:07.800Z,56.13
2023-05-13T20:45:39.885Z,56.32
2023-05-13T20:48:09.489Z,56.36
2023-05-13T20:50:37.858Z,56.40
2023-05-13T20:53:06.117Z,56.31
2023-05-13T20:55:34.223Z,56.62
2023-05-13T20:58:02.395Z,56.85
2023-05-13T21:00:30.885Z,57.02
2023-05-13T21:02:59.866Z,57.25
2023-05-13T21:05:28.475Z,57.39
2023-05-13T21:07:57.373Z,57.48
2023-05-13T21:10:25.803Z,57.64
2023-05-13T21:12:54.456Z,58.07
2023-05-13T21:15:22.746Z,58.43
2023-05-13T21:17:50.959Z,58.96
2023-05-13T21:20:19.310Z,59.60
2023-05-13T21:22:47.395Z,59.53
2023-05-13T21:25:16.358Z,59.78
2023-05-13T21:27:45.275Z,59.65
2023-05-13T21:30:14.007Z,59.93
2023-05-13T21:32:42.361Z,60.18
2023-05-13T21:35:10.574Z,60.23
2023-05-13T21:37:39.002Z,60.48
2023-05-13T21:40:08.612Z,60.71
2023-05-13T21:42:36.916Z,60.86
2023-05-13T21:45:05.899Z,60.88
2023-05-13T21:47:34.316Z,61.13
2023-05-13T21:50:03.046Z,61.34
2023-05-13T21:52:31.355Z,61.87
2023-05-13T21:54:59.741Z,61.91
2023-05-13T21:57:28.678Z,61.74
2023-05-13T21:59:56.916Z,62.09
2023-05-13T22:02:25.254Z,62.20
2023-05-13T22:04:53.736Z,62.40
2023-05-13T22:07:22.180Z,62.74
2023-05-13T22:09:50.660Z,63.50
2023-05-13T22:12:19.139Z,63.26
2023-05-13T22:14:47.328Z,63.29
2023-05-13T22:17:15.473Z,63.94
2023-05-13T22:19:43.846Z,64.41
2023-05-13T22:22:12.284Z,64.13
2023-05-13T22:24:40.765Z,64.37
2023-05-13T22:27:09.511Z,64.20
2023-05-13T22:29:37.939Z,64.32
2023-05-13T22:32:06.855Z,64.50
2023-05-13T22:34:35.013Z,64.43
2023-05-13T22:37:04.317Z,64.84
2023-05-13T22:39:32.622Z,64.68
2023-05-13T22:42:00.990Z,65.30
2023-05-13T22:44:29.481Z,65.13
2023-05-13T22:46:57.658Z,65.32
2023-05-13T22:49:26.049Z,65.12
2023-05-13T22:51:54.332Z,65.24
2023-05-13T22:54:22.501Z,65.33
2023-05-13T22:56:50.794Z,65.04
2023-05-13T22:59:19.103Z,65.08
2023-05-13T23:01:47.289Z,65.19
2023-05-13T23:04:15.788Z,65.05
2023-05-13T23:06:47.020Z,65.24
2023-05-13T23:09:15.369Z,65.37
2023-05-13T23:11:43.656Z,65.59
2023-05-13T23:14:12.046Z,65.57
2023-05-13T23:16:40.585Z,65.80
2023-05-13T23:19:09.122Z,66.09
2023-05-13T23:21:37.494Z,66.35
2023-05-13T23:24:06.375Z,66.33
2023-05-13T23:26:34.874Z,66.31
2023-05-13T23:29:03.949Z,67.24
2023-05-13T23:31:32.585Z,67.10
2023-05-13T23:34:00.859Z,67.28
2023-05-13T23:36:29.126Z,67.25
2023-05-13T23:38:57.515Z,67.25
2023-05-13T23:41:26.004Z,67.17
2023-05-13T23:43:54.395Z,67.32
2023-05-13T23:46:23.552Z,67.27
2023-05-13T23:48:55.244Z,67.50
2023-05-13T23:51:23.742Z,67.82
2023-05-13T23:53:54.576Z,68.32
2023-05-13T23:56:22.714Z,68.40
2023-05-13T23:58:50.879Z,68.24
